Time,TemperatureF,DewpointF,PressureIn,WindDirection,WindDirectionDegrees,WindSpeedMPH,WindSpeedGustMPH,Humidity,HourlyPrecipIn,Conditions,Clouds,dailyrainin,SoftwareType,DateUTC
2013-01-07 00:03:00,38.0,30.0,30.21,NW,318,0.0,-999.0,74,-99.99,,,-99.99,,2013-01-07 05:03:00,
2013-01-07 00:12:00,38.0,30.0,30.21,NW,318,0.0,-999.0,74,-99.99,,,-99.99,,2013-01-07 05:12:00,
2013-01-07 00:22:00,38.0,31.0,30.21,NW,318,0.0,-999.0,76,-99.99,,,-99.99,,2013-01-07 05:22:00,
2013-01-07 00:33:00,38.0,30.0,30.21,NW,318,0.0,-999.0,74,-99.99,,,-99.99,,2013-01-07 05:33:00,
2013-01-07 00:42:00,38.0,30.0,30.21,NW,318,0.0,-999.0,74,-99.99,,,-99.99,,2013-01-07 05:42:00,
2013-01-07 00:53:00,38.0,30.0,30.21,NW,318,0.0,-999.0,74,-99.99,,,-99.99,,2013-01-07 05:53:00,
2013-01-07 01:02:00,38.0,31.0,30.21,NW,318,0.0,-999.0,75,-99.99,,,-99.99,,2013-01-07 06:02:00,
2013-01-07 01:12:00,38.0,31.0,30.21,NW,318,0.0,-999.0,75,-99.99,,,-99.99,,2013-01-07 06:12:00,
2013-01-07 01:22:00,37.0,30.0,30.21,NW,318,0.0,-999.0,76,-99.99,,,-99.99,,2013-01-07 06:22:00,
2013-01-07 01:32:00,35.0,29.0,30.20,NW,318,0.0,-999.0,80,-99.99,,,-99.99,,2013-01-07 06:32:00,
2013-01-07 01:42:00,35.0,29.0,30.20,NW,318,0.0,-999.0,80,-99.99,,,-99.99,,2013-01-07 06:42:00,
2013-01-07 01:52:00,35.0,30.0,30.21,NW,318,0.0,-999.0,82,-99.99,,,-99.99,,2013-01-07 06:52:00,
2013-01-07 02:02:00,35.0,30.0,30.21,NW,318,0.0,-999.0,82,-99.99,,,-99.99,,2013-01-07 07:02:00,
2013-01-07 02:12:00,35.0,30.0,30.21,NW,318,0.0,-999.0,82,-99.99,,,-99.99,,2013-01-07 07:12:00,
2013-01-07 02:22:00,34.0,29.0,30.22,NW,318,0.0,-999.0,83,-99.99,,,-99.99,,2013-01-07 07:22:00,
2013-01-07 02:33:00,34.0,29.0,30.22,NW,318,0.0,-999.0,83,-99.99,,,-99.99,,2013-01-07 07:33:00,
2013-01-07 02:43:00,34.0,29.0,30.22,NW,318,0.0,-999.0,83,-99.99,,,-99.99,,2013-01-07 07:43:00,
2013-01-07 02:53:00,33.0,29.0,30.22,East,85,1.0,-999.0,84,-99.99,,,-99.99,,2013-01-07 07:53:00,
2013-01-07 03:03:00,33.0,29.0,30.22,East,84,0.0,-999.0,84,-99.99,,,-99.99,,2013-01-07 08:03:00,
2013-01-07 03:12:00,33.0,29.0,30.22,East,84,0.0,-999.0,84,-99.99,,,-99.99,,2013-01-07 08:12:00,
2013-01-07 03:22:00,33.0,29.0,30.23,ESE,113,1.0,-999.0,84,-99.99,,,-99.99,,2013-01-07 08:22:00,
2013-01-07 03:33:00,35.0,30.0,30.24,NNW,335,0.0,-999.0,82,-99.99,,,-99.99,,2013-01-07 08:33:00,
2013-01-07 03:42:00,35.0,30.0,30.24,NNW,335,0.0,-999.0,82,-99.99,,,-99.99,,2013-01-07 08:42:00,
2013-01-07 03:53:00,34.0,29.0,30.24,WNW,296,0.0,-999.0,83,-99.99,,,-99.99,,2013-01-07 08:53:00,
2013-01-07 04:02:00,35.0,29.0,30.26,WNW,297,0.0,-999.0,80,-99.99,,,-99.99,,2013-01-07 09:02:00,
2013-01-07 04:12:00,35.0,29.0,30.26,WNW,297,0.0,-999.0,80,-99.99,,,-99.99,,2013-01-07 09:12:00,
2013-01-07 04:23:00,36.0,30.0,30.25,NW,315,4.0,-999.0,79,-99.99,,,-99.99,,2013-01-07 09:23:00,
2013-01-07 04:32:00,36.0,30.0,30.25,NW,315,3.0,-999.0,78,-99.99,,,-99.99,,2013-01-07 09:32:00,
2013-01-07 04:42:00,36.0,30.0,30.25,NW,315,3.0,-999.0,78,-99.99,,,-99.99,,2013-01-07 09:42:00,
2013-01-07 04:53:00,38.0,30.0,30.26,North,9,3.0,-999.0,74,-99.99,,,-99.99,,2013-01-07 09:53:00,
2013-01-07 05:02:00,39.0,30.0,30.26,NW,319,3.0,-999.0,71,-99.99,,,-99.99,,2013-01-07 10:02:00,
2013-01-07 05:12:00,39.0,30.0,30.26,NW,319,3.0,-999.0,71,-99.99,,,-99.99,,2013-01-07 10:12:00,
2013-01-07 05:22:00,39.0,30.0,30.27,NNE,26,2.0,-999.0,70,-99.99,,,-99.99,,2013-01-07 10:22:00,
2013-01-07 05:32:00,39.0,30.0,30.27,NW,323,3.0,-999.0,69,-99.99,,,-99.99,,2013-01-07 10:32:00,
2013-01-07 05:42:00,39.0,30.0,30.27,NW,323,3.0,-999.0,69,-99.99,,,-99.99,,2013-01-07 10:42:00,
2013-01-07 05:52:00,38.0,29.0,30.27,NNW,338,2.0,-999.0,70,-99.99,,,-99.99,,2013-01-07 10:52:00,
2013-01-07 06:02:00,38.0,29.0,30.28,NNW,338,1.0,-999.0,71,-99.99,,,-99.99,,2013-01-07 11:02:00,
2013-01-07 06:12:00,38.0,29.0,30.28,NNW,338,1.0,-999.0,71,-99.99,,,-99.99,,2013-01-07 11:12:00,
2013-01-07 06:23:00,37.0,29.0,30.28,NNW,338,2.0,-999.0,74,-99.99,,,-99.99,,2013-01-07 11:23:00,
2013-01-07 06:33:00,36.0,29.0,30.29,NNW,338,0.0,-999.0,75,-99.99,,,-99.99,,2013-01-07 11:33:00,
2013-01-07 06:43:00,36.0,29.0,30.29,NNW,338,0.0,-999.0,75,-99.99,,,-99.99,,2013-01-07 11:43:00,
2013-01-07 06:53:00,35.0,28.0,30.29,NNW,338,0.0,-999.0,76,-99.99,,,-99.99,,2013-01-07 11:53:00,
2013-01-07 07:03:00,34.0,28.0,30.30,NNW,338,0.0,-999.0,77,-99.99,,,-99.99,,2013-01-07 12:03:00,
2013-01-07 07:12:00,34.0,28.0,30.30,NNW,338,0.0,-999.0,77,-99.99,,,-99.99,,2013-01-07 12:12:00,
2013-01-07 07:23:00,34.0,28.0,30.31,NNW,338,1.0,-999.0,78,-99.99,,,-99.99,,2013-01-07 12:23:00,
2013-01-07 07:33:00,33.0,28.0,30.32,NNW,338,0.0,-999.0,80,-99.99,,,-99.99,,2013-01-07 12:33:00,
2013-01-07 07:43:00,33.0,28.0,30.32,NNW,338,0.0,-999.0,80,-99.99,,,-99.99,,2013-01-07 12:43:00,
2013-01-07 07:53:00,32.0,27.0,30.32,NNW,338,0.0,-999.0,81,-99.99,,,-99.99,,2013-01-07 12:53:00,
2013-01-07 08:03:00,32.0,27.0,30.32,NNW,338,0.0,-999.0,82,-99.99,,,-99.99,,2013-01-07 13:03:00,
2013-01-07 08:12:00,32.0,27.0,30.32,NNW,338,0.0,-999.0,82,-99.99,,,-99.99,,2013-01-07 13:12:00,
2013-01-07 08:23:00,32.0,27.0,30.33,NNW,338,0.0,-999.0,81,-99.99,,,-99.99,,2013-01-07 13:23:00,
2013-01-07 08:33:00,35.0,29.0,30.34,NNW,338,0.0,-999.0,78,-99.99,,,-99.99,,2013-01-07 13:33:00,
2013-01-07 08:43:00,35.0,29.0,30.34,NNW,338,0.0,-999.0,78,-99.99,,,-99.99,,2013-01-07 13:43:00,
2013-01-07 08:53:00,37.0,28.0,30.35,NNW,338,0.0,-999.0,71,-99.99,,,-99.99,,2013-01-07 13:53:00,
2013-01-07 09:03:00,40.0,30.0,30.36,NNW,338,0.0,-999.0,66,-99.99,,,-99.99,,2013-01-07 14:03:00,
2013-01-07 09:13:00,40.0,30.0,30.36,NNW,338,0.0,-999.0,66,-99.99,,,-99.99,,2013-01-07 14:13:00,
2013-01-07 09:22:00,40.0,29.0,30.37,NNW,338,0.0,-999.0,64,-99.99,,,-99.99,,2013-01-07 14:22:00,
2013-01-07 09:33:00,40.0,29.0,30.37,NNW,338,0.0,-999.0,64,-99.99,,,-99.99,,2013-01-07 14:33:00,
2013-01-07 09:43:00,40.0,29.0,30.37,NNW,338,0.0,-999.0,64,-99.99,,,-99.99,,2013-01-07 14:43:00,
2013-01-07 09:53:00,41.0,30.0,30.37,NNW,338,0.0,-999.0,64,-99.99,,,-99.99,,2013-01-07 14:53:00,
2013-01-07 10:03:00,44.0,30.0,30.37,NNE,32,1.0,-999.0,58,-99.99,,,-99.99,,2013-01-07 15:03:00,
2013-01-07 10:12:00,44.0,30.0,30.37,NNE,32,1.0,-999.0,58,-99.99,,,-99.99,,2013-01-07 15:12:00,
2013-01-07 10:23:00,45.0,30.0,30.39,NNE,28,2.0,-999.0,56,-99.99,,,-99.99,,2013-01-07 15:23:00,
2013-01-07 10:33:00,45.0,29.0,30.39,NE,44,3.0,-999.0,53,-99.99,,,-99.99,,2013-01-07 15:33:00,
2013-01-07 10:43:00,45.0,29.0,30.39,NE,44,3.0,-999.0,53,-99.99,,,-99.99,,2013-01-07 15:43:00,
2013-01-07 10:53:00,46.0,30.0,30.40,ENE,69,2.0,-999.0,53,-99.99,,,-99.99,,2013-01-07 15:53:00,
2013-01-07 11:03:00,47.0,29.0,30.40,East,99,2.0,-999.0,49,-99.99,,,-99.99,,2013-01-07 16:03:00,
2013-01-07 11:12:00,47.0,29.0,30.40,East,99,2.0,-999.0,49,-99.99,,,-99.99,,2013-01-07 16:12:00,
2013-01-07 11:23:00,47.0,29.0,30.41,East,92,4.0,-999.0,50,-99.99,,,-99.99,,2013-01-07 16:23:00,
2013-01-07 11:33:00,48.0,30.0,30.41,North,360,2.0,-999.0,50,-99.99,,,-99.99,,2013-01-07 16:33:00,
2013-01-07 11:43:00,48.0,30.0,30.41,North,360,2.0,-999.0,50,-99.99,,,-99.99,,2013-01-07 16:43:00,
2013-01-07 11:53:00,48.0,29.0,30.41,East,84,4.0,-999.0,48,-99.99,,,-99.99,,2013-01-07 16:53:00,
2013-01-07 12:03:00,49.0,30.0,30.40,ESE,113,4.0,-999.0,48,-99.99,,,-99.99,,2013-01-07 17:03:00,
2013-01-07 12:12:00,49.0,30.0,30.40,ESE,113,4.0,-999.0,48,-99.99,,,-99.99,,2013-01-07 17:12:00,
2013-01-07 12:23:00,49.0,31.0,30.40,East,80,2.0,-999.0,49,-99.99,,,-99.99,,2013-01-07 17:23:00,
2013-01-07 12:33:00,50.0,31.0,30.39,ESE,117,3.0,-999.0,47,-99.99,,,-99.99,,2013-01-07 17:33:00,
2013-01-07 12:42:00,50.0,31.0,30.39,ESE,117,3.0,-999.0,47,-99.99,,,-99.99,,2013-01-07 17:42:00,
2013-01-07 12:53:00,50.0,30.0,30.37,East,100,3.0,-999.0,46,-99.99,,,-99.99,,2013-01-07 17:53:00,
2013-01-07 13:03:00,51.0,31.0,30.37,East,82,1.0,-999.0,46,-99.99,,,-99.99,,2013-01-07 18:03:00,
2013-01-07 13:13:00,51.0,31.0,30.37,East,82,1.0,-999.0,46,-99.99,,,-99.99,,2013-01-07 18:13:00,
2013-01-07 13:23:00,51.0,30.0,30.36,East,85,3.0,-999.0,45,-99.99,,,-99.99,,2013-01-07 18:23:00,
2013-01-07 13:33:00,52.0,30.0,30.35,ESE,121,3.0,-999.0,43,-99.99,,,-99.99,,2013-01-07 18:33:00,
2013-01-07 13:43:00,52.0,30.0,30.35,ESE,121,3.0,-999.0,43,-99.99,,,-99.99,,2013-01-07 18:43:00,
2013-01-07 13:52:00,52.0,31.0,30.35,NNW,343,3.0,-999.0,44,-99.99,,,-99.99,,2013-01-07 18:52:00,
2013-01-07 14:03:00,53.0,30.0,30.34,NE,43,2.0,-999.0,41,-99.99,,,-99.99,,2013-01-07 19:03:00,
2013-01-07 14:12:00,53.0,30.0,30.34,NE,43,2.0,-999.0,41,-99.99,,,-99.99,,2013-01-07 19:12:00,
2013-01-07 14:23:00,52.0,30.0,30.34,SE,140,3.0,-999.0,42,-99.99,,,-99.99,,2013-01-07 19:23:00,
2013-01-07 14:33:00,53.0,29.0,30.34,East,85,4.0,-999.0,40,-99.99,,,-99.99,,2013-01-07 19:33:00,
2013-01-07 14:43:00,53.0,29.0,30.34,East,85,4.0,-999.0,40,-99.99,,,-99.99,,2013-01-07 19:43:00,
2013-01-07 14:53:00,53.0,29.0,30.33,SE,130,4.0,-999.0,39,-99.99,,,-99.99,,2013-01-07 19:53:00,
2013-01-07 15:03:00,53.0,29.0,30.33,East,89,4.0,-999.0,39,-99.99,,,-99.99,,2013-01-07 20:03:00,
2013-01-07 15:13:00,53.0,29.0,30.33,East,89,4.0,-999.0,39,-99.99,,,-99.99,,2013-01-07 20:13:00,
2013-01-07 15:23:00,53.0,29.0,30.33,ESE,106,2.0,-999.0,40,-99.99,,,-99.99,,2013-01-07 20:23:00,
2013-01-07 15:33:00,53.0,29.0,30.34,ESE,119,4.0,-999.0,39,-99.99,,,-99.99,,2013-01-07 20:33:00,
2013-01-07 15:43:00,53.0,29.0,30.34,ESE,119,4.0,-999.0,39,-99.99,,,-99.99,,2013-01-07 20:43:00,
2013-01-07 15:52:00,53.0,28.0,30.34,SE,136,3.0,-999.0,38,-99.99,,,-99.99,,2013-01-07 20:52:00,
2013-01-07 16:03:00,53.0,29.0,30.35,East,86,5.0,-999.0,39,-99.99,,,-99.99,,2013-01-07 21:03:00,
2013-01-07 16:12:00,53.0,29.0,30.35,East,86,5.0,-999.0,39,-99.99,,,-99.99,,2013-01-07 21:12:00,
2013-01-07 16:23:00,53.0,29.0,30.35,East,92,2.0,-999.0,39,-99.99,,,-99.99,,2013-01-07 21:23:00,
2013-01-07 16:33:00,53.0,29.0,30.35,SE,146,4.0,-999.0,39,-99.99,,,-99.99,,2013-01-07 21:33:00,
2013-01-07 16:43:00,53.0,29.0,30.35,SE,146,4.0,-999.0,39,-99.99,,,-99.99,,2013-01-07 21:43:00,
2013-01-07 16:53:00,52.0,28.0,30.35,ESE,103,4.0,-999.0,39,-99.99,,,-99.99,,2013-01-07 21:53:00,
2013-01-07 17:03:00,52.0,28.0,30.35,SE,134,3.0,-999.0,39,-99.99,,,-99.99,,2013-01-07 22:03:00,
2013-01-07 17:12:00,52.0,28.0,30.35,SE,134,3.0,-999.0,39,-99.99,,,-99.99,,2013-01-07 22:12:00,
2013-01-07 17:23:00,52.0,29.0,30.36,East,92,2.0,-999.0,41,-99.99,,,-99.99,,2013-01-07 22:23:00,
2013-01-07 17:33:00,51.0,29.0,30.36,ESE,105,3.0,-999.0,42,-99.99,,,-99.99,,2013-01-07 22:33:00,
2013-01-07 17:43:00,51.0,29.0,30.36,ESE,105,3.0,-999.0,42,-99.99,,,-99.99,,2013-01-07 22:43:00,
2013-01-07 17:53:00,50.0,28.0,30.37,East,87,1.0,-999.0,43,-99.99,,,-99.99,,2013-01-07 22:53:00,
2013-01-07 18:02:00,49.0,28.0,30.37,ENE,58,0.0,-999.0,44,-99.99,,,-99.99,,2013-01-07 23:02:00,
2013-01-07 18:12:00,49.0,28.0,30.37,ENE,58,0.0,-999.0,44,-99.99,,,-99.99,,2013-01-07 23:12:00,
2013-01-07 18:23:00,49.0,29.0,30.36,ENE,59,0.0,-999.0,46,-99.99,,,-99.99,,2013-01-07 23:23:00,
2013-01-07 18:33:00,48.0,29.0,30.36,ENE,59,0.0,-999.0,47,-99.99,,,-99.99,,2013-01-07 23:33:00,
2013-01-07 18:43:00,48.0,29.0,30.36,ENE,59,0.0,-999.0,47,-99.99,,,-99.99,,2013-01-07 23:43:00,
2013-01-07 18:53:00,47.0,28.0,30.36,ENE,58,0.0,-999.0,48,-99.99,,,-99.99,,2013-01-07 23:53:00,
2013-01-07 19:03:00,47.0,30.0,30.37,ENE,58,0.0,-999.0,51,-99.99,,,-99.99,,2013-01-08 00:03:00,
2013-01-07 19:12:00,47.0,30.0,30.37,ENE,58,0.0,-999.0,51,-99.99,,,-99.99,,2013-01-08 00:12:00,
2013-01-07 19:22:00,46.0,29.0,30.38,ENE,58,0.0,-999.0,52,-99.99,,,-99.99,,2013-01-08 00:22:00,
2013-01-07 19:33:00,45.0,29.0,30.37,ENE,58,0.0,-999.0,54,-99.99,,,-99.99,,2013-01-08 00:33:00,
2013-01-07 19:42:00,45.0,29.0,30.37,ENE,58,0.0,-999.0,54,-99.99,,,-99.99,,2013-01-08 00:42:00,
2013-01-07 19:52:00,44.0,30.0,30.37,ENE,58,0.0,-999.0,57,-99.99,,,-99.99,,2013-01-08 00:52:00,
2013-01-07 20:03:00,43.0,29.0,30.38,ENE,58,0.0,-999.0,58,-99.99,,,-99.99,,2013-01-08 01:03:00,
2013-01-07 20:12:00,43.0,29.0,30.38,ENE,58,0.0,-999.0,58,-99.99,,,-99.99,,2013-01-08 01:12:00,
2013-01-07 20:22:00,43.0,29.0,30.38,ENE,58,0.0,-999.0,58,-99.99,,,-99.99,,2013-01-08 01:22:00,
2013-01-07 20:33:00,43.0,30.0,30.38,ENE,58,0.0,-999.0,60,-99.99,,,-99.99,,2013-01-08 01:33:00,
2013-01-07 20:42:00,43.0,30.0,30.38,ENE,58,0.0,-999.0,60,-99.99,,,-99.99,,2013-01-08 01:42:00,
2013-01-07 20:53:00,42.0,30.0,30.37,ENE,58,0.0,-999.0,63,-99.99,,,-99.99,,2013-01-08 01:53:00,
2013-01-07 21:02:00,41.0,30.0,30.38,ENE,58,0.0,-999.0,64,-99.99,,,-99.99,,2013-01-08 02:02:00,
2013-01-07 21:12:00,41.0,30.0,30.38,ENE,58,0.0,-999.0,64,-99.99,,,-99.99,,2013-01-08 02:12:00,
2013-01-07 21:22:00,41.0,30.0,30.38,ENE,58,0.0,-999.0,64,-99.99,,,-99.99,,2013-01-08 02:22:00,
2013-01-07 21:33:00,40.0,30.0,30.39,ENE,58,0.0,-999.0,68,-99.99,,,-99.99,,2013-01-08 02:33:00,
2013-01-07 21:43:00,40.0,30.0,30.39,ENE,58,0.0,-999.0,68,-99.99,,,-99.99,,2013-01-08 02:43:00,
2013-01-07 21:53:00,40.0,31.0,30.39,ENE,58,0.0,-999.0,69,-99.99,,,-99.99,,2013-01-08 02:53:00,
2013-01-07 22:03:00,39.0,30.0,30.40,ENE,58,0.0,-999.0,70,-99.99,,,-99.99,,2013-01-08 03:03:00,
2013-01-07 22:12:00,39.0,30.0,30.40,ENE,58,0.0,-999.0,70,-99.99,,,-99.99,,2013-01-08 03:12:00,
2013-01-07 22:22:00,38.0,30.0,30.39,ENE,58,0.0,-999.0,72,-99.99,,,-99.99,,2013-01-08 03:22:00,
2013-01-07 22:33:00,38.0,30.0,30.39,ENE,58,0.0,-999.0,72,-99.99,,,-99.99,,2013-01-08 03:33:00,
2013-01-07 22:43:00,38.0,30.0,30.39,ENE,58,0.0,-999.0,72,-99.99,,,-99.99,,2013-01-08 03:43:00,
2013-01-07 22:53:00,37.0,30.0,30.40,ENE,58,0.0,-999.0,75,-99.99,,,-99.99,,2013-01-08 03:53:00,
2013-01-07 23:02:00,37.0,30.0,30.40,ENE,58,0.0,-999.0,76,-99.99,,,-99.99,,2013-01-08 04:02:00,
2013-01-07 23:12:00,37.0,30.0,30.40,ENE,58,0.0,-999.0,76,-99.99,,,-99.99,,2013-01-08 04:12:00,
2013-01-07 23:22:00,36.0,29.0,30.39,ENE,58,0.0,-999.0,77,-99.99,,,-99.99,,2013-01-08 04:22:00,
2013-01-07 23:32:00,36.0,30.0,30.39,ENE,58,0.0,-999.0,78,-99.99,,,-99.99,,2013-01-08 04:32:00,
2013-01-07 23:42:00,36.0,30.0,30.39,ENE,58,0.0,-999.0,78,-99.99,,,-99.99,,2013-01-08 04:42:00,
2013-01-07 23:52:00,36.0,30.0,30.40,ENE,58,0.0,-999.0,78,-99.99,,,-99.99,,2013-01-08 04:52:00,